createdAt,value
2018-08-22T05:22:41.454Z,4588.00
2018-08-22T05:32:16.073Z,5088.00
2018-08-22T05:33:15.899Z,5116.00
2018-08-22T05:34:15.919Z,5160.00
2018-08-22T05:35:16.013Z,5268.00
2018-08-22T05:43:38.539Z,7124.00
2018-08-22T05:44:39.193Z,7348.00
2018-08-22T06:16:33.737Z,14272.00
2018-08-22T07:27:06.358Z,18664.00
2018-08-22T08:01:31.871Z,26976.00
2018-08-22T08:02:31.624Z,57152.00
2018-08-22T08:28:06.678Z,76384.00
2018-08-22T08:29:06.348Z,75136.00
2018-08-22T08:30:06.390Z,74336.00
2018-08-22T08:31:06.257Z,72352.00
2018-08-22T08:32:06.215Z,72480.00
2018-08-22T08:33:06.324Z,74080.00
2018-08-22T08:34:08.703Z,74976.00
2018-08-22T08:35:18.747Z,72256.00
2018-08-22T08:36:06.261Z,72992.00
2018-08-22T08:37:06.203Z,73568.00
2018-08-22T08:38:06.263Z,73216.00
2018-08-22T08:39:06.134Z,75584.00
2018-08-22T08:40:06.188Z,72928.00
2018-08-22T08:41:06.124Z,75232.00
2018-08-22T08:42:06.145Z,74528.00
2018-08-22T08:43:06.114Z,76576.00
2018-08-22T08:44:06.248Z,76064.00
2018-08-22T08:45:06.084Z,77024.00
2018-08-22T08:46:06.141Z,78208.00
2018-08-22T08:47:06.073Z,78400.00
2018-08-22T08:48:06.105Z,79168.00
2018-08-22T08:49:06.035Z,79360.00
2018-08-22T08:50:06.038Z,79104.00
2018-08-22T08:51:06.143Z,81088.00
2018-08-22T08:52:06.014Z,81600.00
2018-08-22T09:43:29.750Z,86144.00
2018-08-22T09:44:29.343Z,89760.00
2018-08-22T09:45:29.275Z,96544.00
2018-08-22T09:46:29.303Z,88640.00
2018-08-22T09:47:29.257Z,85664.00
2018-08-22T09:48:29.274Z,87904.00
2018-08-22T09:49:29.586Z,86784.00
2018-08-22T09:50:30.091Z,86848.00
2018-08-22T09:51:29.279Z,92544.00
2018-08-22T10:11:34.388Z,97728.00
2018-08-22T10:21:08.706Z,67232.00
2018-08-22T10:22:08.833Z,72256.00
2018-08-22T10:58:50.811Z,100352.00
2018-08-22T10:59:50.607Z,96320.00
2018-08-22T11:00:50.522Z,95712.00
2018-08-22T11:01:50.565Z,90784.00
2018-08-22T11:07:38.261Z,101824.00
2018-08-22T11:08:37.802Z,103392.00
2018-08-22T11:10:55.564Z,109184.00
2018-08-22T11:28:10.074Z,95520.00
2018-08-22T11:31:42.965Z,102112.00
2018-08-22T11:36:01.096Z,95680.00
2018-08-22T11:40:09.945Z,106784.00
2018-08-22T11:47:46.860Z,98272.00
2018-08-22T11:56:11.457Z,108608.00
2018-08-22T11:57:11.192Z,107168.00
2018-08-22T12:32:13.160Z,97984.00
2018-08-22T12:34:30.110Z,97344.00
2018-08-22T12:35:29.642Z,98528.00
2018-08-22T12:42:13.649Z,91392.00
2018-08-22T12:43:13.208Z,27968.00
2018-08-22T12:44:13.105Z,22976.00
2018-08-22T12:47:17.802Z,64608.00
2018-08-22T13:02:13.811Z,93184.00
2018-08-22T13:03:01.499Z,71424.00
2018-08-22T13:04:01.540Z,75232.00
2018-08-22T13:05:01.541Z,79008.00
2018-08-22T13:06:01.518Z,90592.00
2018-08-22T13:07:01.438Z,98304.00
2018-08-22T13:08:01.448Z,98912.00
2018-08-22T13:09:02.483Z,89888.00
2018-08-22T13:10:01.388Z,76576.00
2018-08-22T13:11:01.419Z,69152.00
2018-08-22T13:12:01.411Z,77472.00
2018-08-22T13:14:18.697Z,95072.00
2018-08-22T13:15:18.820Z,87648.00
2018-08-22T13:16:18.286Z,70976.00
2018-08-22T13:17:18.240Z,66688.00
2018-08-22T13:24:06.825Z,84736.00
2018-08-22T13:25:06.394Z,103616.00
2018-08-22T13:26:06.325Z,94016.00
2018-08-22T13:27:06.330Z,72800.00
2018-08-22T13:28:06.312Z,64960.00
2018-08-22T13:29:06.241Z,80192.00
2018-08-22T13:30:06.512Z,89088.00
2018-08-22T13:31:06.322Z,78368.00
2018-08-22T13:32:06.288Z,62496.00
2018-08-22T13:33:06.212Z,65440.00
2018-08-22T13:34:06.231Z,82240.00
2018-08-22T13:35:08.942Z,62368.00
2018-08-22T13:41:12.059Z,75200.00
2018-08-22T13:42:11.848Z,80320.00
2018-08-22T13:43:11.710Z,79456.00
2018-08-22T13:44:11.522Z,79872.00
2018-08-22T13:45:11.622Z,79936.00
2018-08-22T13:46:12.050Z,78176.00
2018-08-22T13:47:13.796Z,66240.00
2018-08-22T13:48:11.588Z,70720.00
2018-08-22T13:49:11.768Z,55296.00
2018-08-22T13:50:11.521Z,32000.00
2018-08-22T14:01:03.627Z,15652.00
2018-08-22T14:02:03.219Z,15224.00
2018-08-22T14:03:03.057Z,14980.00
2018-08-22T14:04:03.197Z,14932.00
2018-08-22T14:06:21.620Z,15088.00
2018-08-22T14:07:21.424Z,15284.00
2018-08-22T14:09:38.522Z,15080.00
2018-08-22T14:10:38.634Z,14892.00
2018-08-22T14:13:43.952Z,14308.00
2018-08-22T14:14:43.512Z,14048.00
2018-08-22T14:15:43.414Z,13956.00
2018-08-22T14:16:43.401Z,14024.00
2018-08-22T14:17:43.399Z,14260.00
2018-08-22T14:18:43.322Z,14704.00
2018-08-22T14:19:43.405Z,14908.00
2018-08-22T14:20:43.361Z,13716.00
2018-08-22T14:21:43.288Z,14272.00
2018-08-22T14:22:43.287Z,14172.00
2018-08-22T14:23:43.346Z,13040.00
2018-08-22T14:24:43.290Z,12648.00
2018-08-22T14:25:43.284Z,12688.00
2018-08-22T14:26:43.371Z,12716.00
2018-08-22T14:28:54.629Z,13972.00
2018-08-22T14:29:54.207Z,14796.00
2018-08-22T14:30:54.148Z,14928.00
2018-08-22T14:35:41.860Z,13920.00
2018-08-22T14:36:41.487Z,13936.00
2018-08-22T14:37:41.416Z,13772.00
2018-08-22T14:40:03.957Z,12512.00
2018-08-22T14:41:03.588Z,11852.00
2018-08-22T14:42:03.798Z,11764.00
2018-08-22T14:44:35.912Z,12440.00
2018-08-22T14:45:35.579Z,12660.00
2018-08-22T14:46:35.427Z,12800.00
2018-08-22T14:47:35.458Z,12988.00
2018-08-22T14:48:35.414Z,13000.00
2018-08-22T14:49:35.396Z,13020.00
2018-08-22T14:50:35.409Z,12900.00
2018-08-22T14:51:35.387Z,12772.00
2018-08-22T14:52:37.984Z,12912.00
2018-08-22T15:05:33.126Z,12628.00
2018-08-22T15:09:20.294Z,12452.00
2018-08-22T15:10:19.943Z,12332.00
2018-08-22T15:11:31.111Z,12200.00
2018-08-22T15:12:19.865Z,12072.00
2018-08-22T15:13:24.073Z,11992.00
2018-08-22T15:14:19.867Z,11956.00
2018-08-22T15:15:19.915Z,11904.00
2018-08-22T15:16:19.763Z,11936.00
2018-08-22T15:17:19.731Z,11728.00
2018-08-22T15:18:24.479Z,11788.00
2018-08-22T15:20:49.667Z,11804.00
2018-08-22T15:21:49.528Z,11752.00
2018-08-22T15:22:49.523Z,11676.00
2018-08-22T15:23:49.463Z,11692.00
2018-08-22T15:24:49.572Z,11820.00
2018-08-22T15:25:51.106Z,12180.00
2018-08-22T15:26:49.359Z,12592.00
2018-08-22T15:27:49.368Z,12340.00
2018-08-22T15:28:49.378Z,12096.00
2018-08-22T15:36:00.129Z,10848.00
2018-08-22T15:36:59.678Z,10744.00
2018-08-22T15:37:59.792Z,10648.00
2018-08-22T15:38:59.669Z,10528.00
2018-08-22T15:39:59.676Z,10372.00
2018-08-22T15:40:59.790Z,10280.00
2018-08-22T15:41:59.694Z,10224.00
2018-08-22T15:42:59.640Z,10180.00
2018-08-22T15:43:59.660Z,10008.00
2018-08-22T15:44:59.624Z,10104.00
2018-08-22T15:45:59.590Z,10056.00
2018-08-22T15:48:00.717Z,9904.00
2018-08-22T15:48:59.106Z,9720.00
2018-08-22T15:49:59.893Z,9768.00
2018-08-22T15:50:59.044Z,9680.00
2018-08-22T15:51:59.028Z,9648.00
2018-08-22T15:52:59.001Z,9584.00
2018-08-22T15:53:59.005Z,9504.00
2018-08-22T15:54:59.017Z,9468.00
2018-08-22T15:55:58.971Z,9388.00
2018-08-22T15:56:58.996Z,9388.00
2018-08-22T15:57:58.943Z,9332.00
2018-08-22T15:58:59.081Z,9300.00
2018-08-22T15:59:58.927Z,9204.00
2018-08-22T16:00:58.930Z,9072.00
2018-08-22T16:01:58.938Z,9024.00
2018-08-22T16:02:58.895Z,8948.00
2018-08-22T16:03:58.878Z,8860.00
2018-08-22T16:04:58.873Z,8836.00
2018-08-22T16:05:58.879Z,8816.00
2018-08-22T16:06:58.850Z,8784.00
2018-08-22T16:07:58.851Z,8712.00
2018-08-22T16:08:58.832Z,8724.00
2018-08-22T16:09:58.821Z,8672.00
2018-08-22T16:10:58.825Z,8620.00
2018-08-22T16:11:58.806Z,8568.00
2018-08-22T16:12:58.783Z,8524.00
2018-08-22T16:13:58.801Z,8520.00
2018-08-22T16:14:58.765Z,8452.00
2018-08-22T16:15:58.779Z,8428.00
2018-08-22T16:16:58.737Z,8396.00
2018-08-22T16:17:58.804Z,8360.00
2018-08-22T16:18:58.722Z,8296.00
2018-08-22T16:19:58.711Z,8256.00
2018-08-22T16:20:58.740Z,8180.00
2018-08-22T16:21:58.702Z,8160.00
2018-08-22T16:22:58.678Z,8100.00
2018-08-22T16:23:58.718Z,8064.00
2018-08-22T16:24:58.655Z,8104.00
2018-08-22T16:25:58.645Z,8052.00
2018-08-22T16:26:58.730Z,7956.00
2018-08-22T16:27:58.630Z,7944.00
2018-08-22T16:28:58.620Z,7904.00
2018-08-22T16:29:58.600Z,7832.00
2018-08-22T16:30:58.650Z,7820.00
2018-08-22T16:31:58.579Z,7788.00
2018-08-22T16:32:58.570Z,7740.00
2018-08-22T16:33:58.615Z,7712.00
2018-08-22T16:34:59.006Z,7680.00
2018-08-22T16:35:58.540Z,7648.00
2018-08-22T16:36:58.533Z,7612.00
2018-08-22T16:37:58.523Z,7584.00
2018-08-22T16:38:58.507Z,7520.00
2018-08-22T16:39:58.594Z,7456.00
2018-08-22T16:40:58.513Z,7412.00
2018-08-22T16:41:58.473Z,7328.00
2018-08-22T16:42:58.474Z,7292.00
2018-08-22T16:43:58.454Z,7256.00
2018-08-22T16:44:58.500Z,7228.00
2018-08-22T16:45:58.434Z,7200.00
2018-08-22T16:46:58.460Z,7160.00
2018-08-22T16:47:58.409Z,7132.00
2018-08-22T16:48:58.400Z,7088.00
2018-08-22T16:49:58.403Z,7036.00
2018-08-22T16:50:58.383Z,7016.00
2018-08-22T16:51:58.396Z,6992.00
2018-08-22T16:52:58.453Z,6932.00
2018-08-22T16:53:58.345Z,6888.00
2018-08-22T16:54:58.356Z,6808.00
2018-08-22T16:55:58.332Z,6772.00
2018-08-22T16:56:58.320Z,6728.00
2018-08-22T16:57:58.320Z,6680.00
2018-08-22T16:58:58.330Z,6656.00
2018-08-22T16:59:58.417Z,6600.00
2018-08-22T17:00:58.276Z,6528.00
2018-08-22T17:01:58.343Z,6472.00
2018-08-22T17:02:58.268Z,6420.00
2018-08-22T17:03:58.266Z,6360.00
2018-08-22T17:04:58.236Z,6296.00
2018-08-22T17:09:10.216Z,6060.00
2018-08-22T17:10:10.494Z,5996.00
2018-08-22T17:18:06.603Z,5308.00
2018-08-22T17:19:09.443Z,5208.00
2018-08-22T17:21:45.982Z,4944.00
2018-08-22T17:28:17.029Z,4348.00
2018-08-22T17:30:27.066Z,4188.00
2018-08-22T17:31:26.776Z,4124.00
2018-08-22T17:32:27.597Z,4072.00
2018-08-22T17:33:26.905Z,4020.00
2018-08-22T17:34:27.076Z,3964.00
2018-08-22T17:35:26.794Z,3912.00
2018-08-22T17:36:26.705Z,3836.00
2018-08-22T17:37:26.685Z,3756.00
2018-08-22T17:38:26.679Z,3644.00
2018-08-22T17:39:26.779Z,3532.00
2018-08-22T17:40:27.227Z,3404.00
2018-08-22T17:41:26.722Z,3280.00
2018-08-22T17:42:26.643Z,3156.00
2018-08-22T17:43:26.657Z,3028.00
2018-08-22T17:44:26.621Z,2908.00
2018-08-22T17:45:27.745Z,2800.00
2018-08-22T17:46:26.613Z,2712.00
2018-08-22T17:47:26.600Z,2644.00
2018-08-22T17:48:26.674Z,2572.00
2018-08-22T17:49:27.467Z,2512.00
2018-08-22T17:52:20.174Z,2320.00
2018-08-22T17:53:19.576Z,2252.00
2018-08-22T17:54:19.692Z,2192.00
2018-08-22T17:55:19.544Z,2132.00
2018-08-22T18:51:31.485Z,52.00
2018-08-22T18:52:29.774Z,44.00
2018-08-22T18:53:29.504Z,40.00
2018-08-22T18:54:29.501Z,32.00
2018-08-22T19:04:30.921Z,4.00
2018-08-22T19:06:43.571Z,4.00
2018-08-22T19:07:43.329Z,4.00
2018-08-22T19:08:43.358Z,0.00
2018-08-22T19:09:43.247Z,4.00
2018-08-22T19:10:43.201Z,4.00
2018-08-22T19:11:43.260Z,4.00
2018-08-22T19:12:43.560Z,0.00
2018-08-22T19:13:43.175Z,0.00
2018-08-22T19:14:43.165Z,0.00
2018-08-22T19:15:43.166Z,0.00
2018-08-22T19:16:43.196Z,0.00
2018-08-22T19:17:43.238Z,0.00
2018-08-22T19:18:43.119Z,0.00
2018-08-22T19:19:43.115Z,0.00
2018-08-22T19:20:43.151Z,0.00
2018-08-22T19:21:43.157Z,0.00
2018-08-22T19:22:43.101Z,0.00
2018-08-22T19:23:43.079Z,0.00
2018-08-22T19:24:43.061Z,0.00
2018-08-22T19:25:43.986Z,0.00
2018-08-22T19:26:43.116Z,0.00
2018-08-22T19:27:43.924Z,0.00
2018-08-22T19:28:43.024Z,0.00
2018-08-22T19:29:44.796Z,0.00
2018-08-22T19:30:43.874Z,0.00
2018-08-22T19:31:43.009Z,0.00
2018-08-22T19:32:43.028Z,0.00
2018-08-22T19:33:42.985Z,0.00
2018-08-22T19:34:42.984Z,0.00
2018-08-22T19:35:43.396Z,0.00
2018-08-22T19:36:42.931Z,0.00
2018-08-22T19:37:43.121Z,0.00
2018-08-22T19:38:42.925Z,0.00
2018-08-22T19:39:43.819Z,0.00
2018-08-22T19:40:42.876Z,0.00
2018-08-22T19:41:42.865Z,0.00
2018-08-22T19:42:42.872Z,0.00
2018-08-22T19:43:43.297Z,0.00
2018-08-22T19:44:54.355Z,0.00
2018-08-22T19:47:08.744Z,0.00
2018-08-22T19:48:08.358Z,0.00
2018-08-22T19:49:08.349Z,0.00
2018-08-22T19:50:09.289Z,0.00
2018-08-22T20:01:07.311Z,0.00
2018-08-22T20:02:07.207Z,0.00
2018-08-22T20:03:06.743Z,0.00
2018-08-22T20:04:06.998Z,0.00
2018-08-22T20:05:06.753Z,0.00
2018-08-22T20:06:06.686Z,0.00
2018-08-22T20:07:06.710Z,0.00
2018-08-22T20:08:09.683Z,0.00
2018-08-22T20:12:08.898Z,0.00
2018-08-22T20:13:00.995Z,0.00
2018-08-22T20:14:00.946Z,0.00
2018-08-22T20:15:00.962Z,0.00
2018-08-22T20:16:01.556Z,0.00
2018-08-22T20:17:01.035Z,0.00
2018-08-22T20:18:00.866Z,0.00
2018-08-22T20:19:00.828Z,0.00
2018-08-22T20:20:00.830Z,0.00
2018-08-22T20:21:00.850Z,0.00
2018-08-22T20:22:00.791Z,0.00
2018-08-22T20:23:00.930Z,0.00
2018-08-22T20:24:01.430Z,0.00
2018-08-22T20:25:00.754Z,0.00
2018-08-22T20:26:00.745Z,0.00
2018-08-22T20:27:00.753Z,0.00
2018-08-22T20:28:00.924Z,0.00
2018-08-22T20:29:00.769Z,0.00
2018-08-22T20:30:00.699Z,0.00
2018-08-22T20:31:00.708Z,0.00
2018-08-22T20:32:00.684Z,0.00
2018-08-22T20:33:00.675Z,0.00
2018-08-22T20:34:00.656Z,0.00
2018-08-22T20:35:00.667Z,0.00
2018-08-22T20:36:00.642Z,0.00
2018-08-22T20:37:00.647Z,0.00
2018-08-22T20:38:00.625Z,0.00
2018-08-22T20:39:00.602Z,0.00
2018-08-22T20:40:00.621Z,0.00
2018-08-22T20:41:00.587Z,0.00
2018-08-22T20:42:00.584Z,0.00
2018-08-22T20:43:00.614Z,0.00
2018-08-22T20:44:00.543Z,0.00
2018-08-22T20:45:00.539Z,0.00
2018-08-22T20:46:00.528Z,0.00
2018-08-22T20:47:00.542Z,0.00
2018-08-22T20:48:00.506Z,0.00
2018-08-22T20:49:00.531Z,0.00
2018-08-22T20:50:00.539Z,0.00
2018-08-22T20:51:00.474Z,0.00
2018-08-22T20:52:00.459Z,0.00
2018-08-22T20:53:00.493Z,0.00
2018-08-22T20:54:00.437Z,0.00
2018-08-22T20:55:00.427Z,0.00
2018-08-22T20:56:00.469Z,0.00
2018-08-22T20:57:00.409Z,0.00
2018-08-22T20:58:00.397Z,0.00
2018-08-22T20:59:00.420Z,0.00
2018-08-22T21:00:00.383Z,0.00
2018-08-22T21:01:00.399Z,0.00
2018-08-22T21:02:00.392Z,0.00
2018-08-22T21:03:00.410Z,0.00
2018-08-22T21:04:00.337Z,0.00
2018-08-22T21:05:00.339Z,0.00
2018-08-22T21:06:00.327Z,0.00
2018-08-22T21:07:00.291Z,0.00
2018-08-22T21:08:00.283Z,0.00
2018-08-22T21:09:00.292Z,0.00
2018-08-22T21:10:00.255Z,0.00
2018-08-22T21:11:00.269Z,0.00
2018-08-22T21:12:00.284Z,0.00
2018-08-22T21:13:00.224Z,0.00
2018-08-22T21:14:00.221Z,0.00
2018-08-22T21:15:00.216Z,0.00
2018-08-22T21:16:00.192Z,0.00
2018-08-22T21:17:00.235Z,0.00
2018-08-22T21:18:00.190Z,0.00
2018-08-22T21:19:00.168Z,0.00
2018-08-22T21:20:00.164Z,0.00
2018-08-22T21:21:00.146Z,0.00
2018-08-22T21:22:00.149Z,0.00
2018-08-22T21:23:00.130Z,0.00
2018-08-22T21:24:00.101Z,0.00
2018-08-22T21:25:00.176Z,0.00
2018-08-22T21:26:00.081Z,0.00
2018-08-22T21:27:00.070Z,0.00
2018-08-22T21:28:00.113Z,0.00
2018-08-22T21:29:00.074Z,0.00
2018-08-22T21:30:00.033Z,0.00
2018-08-22T21:31:00.032Z,0.00
2018-08-22T21:32:00.017Z,0.00
2018-08-22T21:33:00.005Z,0.00
2018-08-22T21:34:00.045Z,0.00
2018-08-22T21:34:59.984Z,0.00
2018-08-22T21:35:59.978Z,0.00
2018-08-22T21:36:59.966Z,0.00
2018-08-22T21:37:59.959Z,0.00
2018-08-22T21:38:59.954Z,0.00
2018-08-22T21:39:59.992Z,0.00
2018-08-22T21:40:59.919Z,0.00
2018-08-22T21:41:59.908Z,0.00
2018-08-22T21:42:59.900Z,0.00
2018-08-22T21:43:59.924Z,0.00
2018-08-22T21:44:59.880Z,0.00
2018-08-22T21:45:59.863Z,0.00
2018-08-22T21:46:59.868Z,0.00
2018-08-22T21:47:59.853Z,0.00
2018-08-22T21:48:59.855Z,0.00
2018-08-22T21:49:59.842Z,0.00
2018-08-22T21:50:59.816Z,0.00
2018-08-22T21:51:59.810Z,0.00
2018-08-22T21:52:59.797Z,0.00
2018-08-22T21:53:59.788Z,0.00
2018-08-22T21:54:59.910Z,0.00
2018-08-22T21:55:59.754Z,0.00
2018-08-22T21:56:59.744Z,0.00
2018-08-22T21:57:59.742Z,0.00
2018-08-22T21:58:59.728Z,0.00
2018-08-22T21:59:59.725Z,0.00
2018-08-22T22:00:59.711Z,0.00
2018-08-22T22:01:59.729Z,0.00
2018-08-22T22:02:59.681Z,0.00
2018-08-22T22:03:59.675Z,0.00
2018-08-22T22:04:59.709Z,0.00
2018-08-22T22:05:59.653Z,0.00
2018-08-22T22:06:59.640Z,0.00
2018-08-22T22:07:59.623Z,0.00
2018-08-22T22:08:59.670Z,0.00
2018-08-22T22:09:59.602Z,0.00
2018-08-22T22:10:59.670Z,0.00
2018-08-22T22:11:59.595Z,0.00
2018-08-22T22:12:59.585Z,0.00
2018-08-22T22:13:59.566Z,0.00
2018-08-22T22:14:59.563Z,0.00
2018-08-22T22:15:59.598Z,0.00
2018-08-22T22:16:59.526Z,0.00
2018-08-22T22:17:59.512Z,0.00
2018-08-22T22:18:59.538Z,0.00
2018-08-22T22:19:59.498Z,0.00
2018-08-22T22:20:59.516Z,0.00
2018-08-22T22:21:59.487Z,0.00
2018-08-22T22:22:59.464Z,0.00
2018-08-22T22:23:59.464Z,0.00
2018-08-22T22:24:59.437Z,0.00
2018-08-22T22:25:59.431Z,0.00
2018-08-22T22:26:59.440Z,0.00
2018-08-22T22:27:59.424Z,0.00
2018-08-22T22:28:59.392Z,0.00
2018-08-22T22:29:59.387Z,0.00
2018-08-22T22:30:59.413Z,0.00
2018-08-22T22:31:59.379Z,0.00
2018-08-22T22:32:59.348Z,0.00
2018-08-22T22:33:59.346Z,0.00
2018-08-22T22:34:59.340Z,0.00
2018-08-22T22:35:59.313Z,0.00
2018-08-22T22:36:59.370Z,0.00
2018-08-22T22:37:59.319Z,0.00
2018-08-22T22:38:59.292Z,0.00
2018-08-22T22:39:59.274Z,0.00
2018-08-22T22:40:59.274Z,0.00
2018-08-22T22:41:59.270Z,0.00
2018-08-22T22:42:59.266Z,0.00
2018-08-22T22:43:59.247Z,0.00
2018-08-22T22:44:59.224Z,0.00
2018-08-22T22:45:59.208Z,0.00
2018-08-22T22:46:59.195Z,0.00
2018-08-22T22:47:59.184Z,0.00
2018-08-22T22:48:59.188Z,0.00
2018-08-22T22:49:59.189Z,0.00
2018-08-22T22:50:59.149Z,0.00
2018-08-22T22:51:59.143Z,0.00
2018-08-22T22:52:59.164Z,0.00
2018-08-22T22:53:59.116Z,0.00
2018-08-22T22:54:59.115Z,0.00
2018-08-22T22:55:59.139Z,0.00
2018-08-22T22:56:59.090Z,0.00
2018-08-22T22:57:59.080Z,0.00
2018-08-22T22:58:59.092Z,0.00
2018-08-22T22:59:59.057Z,0.00
2018-08-22T23:00:59.039Z,0.00
2018-08-22T23:01:59.080Z,0.00
2018-08-22T23:02:59.031Z,0.00
2018-08-22T23:03:59.015Z,0.00
2018-08-22T23:04:59.009Z,0.00
2018-08-22T23:05:58.991Z,0.00
2018-08-22T23:06:58.976Z,0.00
2018-08-22T23:07:58.963Z,0.00
2018-08-22T23:08:59.018Z,0.00
2018-08-22T23:09:58.955Z,0.00
2018-08-22T23:10:58.933Z,0.00
2018-08-22T23:11:58.922Z,0.00
2018-08-22T23:12:58.908Z,0.00
2018-08-22T23:13:58.900Z,0.00
2018-08-22T23:14:58.935Z,0.00
2018-08-22T23:15:58.890Z,0.00
2018-08-22T23:16:58.864Z,0.00
2018-08-22T23:17:58.894Z,0.00
2018-08-22T23:18:58.852Z,0.00
2018-08-22T23:19:58.834Z,0.00
2018-08-22T23:20:58.873Z,0.00
2018-08-22T23:21:58.809Z,0.00
2018-08-22T23:22:58.797Z,0.00
2018-08-22T23:23:58.811Z,0.00
2018-08-22T23:24:58.780Z,0.00
2018-08-22T23:25:58.776Z,0.00
2018-08-22T23:26:58.777Z,0.00
2018-08-22T23:27:58.778Z,0.00
2018-08-22T23:28:58.735Z,0.00
2018-08-22T23:29:58.724Z,0.00
2018-08-22T23:30:58.765Z,0.00
2018-08-22T23:31:58.697Z,0.00
2018-08-22T23:32:58.743Z,0.00
2018-08-22T23:33:58.679Z,0.00
2018-08-22T23:34:58.669Z,0.00
2018-08-22T23:35:58.703Z,0.00
2018-08-22T23:36:58.664Z,0.00
2018-08-22T23:37:58.684Z,0.00
2018-08-22T23:38:58.621Z,0.00
2018-08-22T23:39:58.609Z,0.00
2018-08-22T23:40:58.630Z,0.00
2018-08-22T23:41:58.630Z,0.00
2018-08-22T23:42:58.606Z,0.00
2018-08-22T23:43:58.617Z,0.00
2018-08-22T23:44:58.557Z,0.00
2018-08-22T23:45:58.570Z,0.00
2018-08-22T23:46:58.539Z,0.00
2018-08-22T23:47:58.544Z,0.00
2018-08-22T23:48:58.513Z,0.00
2018-08-22T23:49:58.546Z,0.00
2018-08-22T23:50:58.498Z,0.00
2018-08-22T23:51:58.481Z,0.00
2018-08-22T23:52:58.517Z,0.00
2018-08-22T23:53:58.483Z,0.00
2018-08-22T23:54:58.496Z,0.00
2018-08-22T23:55:58.434Z,0.00
2018-08-22T23:56:58.431Z,0.00
2018-08-22T23:57:58.415Z,0.00
2018-08-22T23:58:58.417Z,0.00
2018-08-22T23:59:58.427Z,0.00
